Time;durP1;ratioP1;P1;durP2;ratioP2;P2;SDS_P1;SDS_P2;PMS_P1;PMS_P2;Temp;Humidity;BMP_temperature;BMP_pressure;BME280_temperature;BME280_humidity;BME280_pressure;Samples;Min_cycle;Max_cycle;Signal;HPM_P1;HPM_P2
2023/12/22 00:00:39;;;;;;;24.52;4.22;;;;;;;5.78;100.00;100033.53;5106950;27;20511;-76
2023/12/22 00:03:05;;;;;;;14.55;3.85;;;;;;;5.81;100.00;100040.41;5111674;27;20071;-75
2023/12/22 00:05:32;;;;;;;23.25;4.72;;;;;;;5.81;100.00;100065.06;5092826;27;20039;-75
2023/12/22 00:07:58;;;;;;;17.77;3.63;;;;;;;5.84;100.00;100056.97;5109239;27;21186;-75
2023/12/22 00:10:23;;;;;;;26.27;4.28;;;;;;;5.89;100.00;100065.50;5089402;27;20039;-75
2023/12/22 00:12:49;;;;;;;21.52;4.18;;;;;;;5.90;100.00;100053.97;5093373;27;20471;-75
2023/12/22 00:15:17;;;;;;;27.52;4.05;;;;;;;5.95;100.00;100064.34;5109519;27;20039;-76
2023/12/22 00:17:43;;;;;;;26.73;4.60;;;;;;;5.99;100.00;100080.91;5094496;27;20031;-75
2023/12/22 00:20:13;;;;;;;17.10;4.32;;;;;;;5.98;100.00;100077.41;5100241;27;20527;-75
2023/12/22 00:22:38;;;;;;;27.08;4.35;;;;;;;6.01;100.00;100082.50;5102231;27;20040;-75
2023/12/22 00:25:09;;;;;;;23.58;4.75;;;;;;;6.03;100.00;100080.66;5116810;27;20055;-75
2023/12/22 00:27:38;;;;;;;29.52;4.60;;;;;;;6.05;100.00;100084.03;5118892;27;20046;-77
2023/12/22 00:30:10;;;;;;;20.63;3.97;;;;;;;6.10;100.00;100086.44;5107510;27;20070;-76
2023/12/22 00:32:36;;;;;;;;;;;;;;;6.14;100.00;100091.47;5113661;27;20197;-76
2023/12/22 00:35:19;;;;;;;13.73;3.30;;;;;;;6.18;100.00;100081.56;5096834;27;19975;-76
2023/12/22 00:37:45;;;;;;;25.33;4.30;;;;;;;6.18;100.00;100085.06;5096903;27;20664;-76
2023/12/22 00:40:11;;;;;;;21.13;4.20;;;;;;;6.23;100.00;100090.09;5104271;27;20919;-75
2023/12/22 00:42:36;;;;;;;25.10;4.47;;;;;;;6.23;100.00;100098.03;5110046;27;20035;-76
2023/12/22 00:45:11;;;;;;;21.77;4.32;;;;;;;6.26;100.00;100095.19;5108119;27;20484;-76
2023/12/22 00:47:36;;;;;;;35.25;4.43;;;;;;;6.31;100.00;100093.13;5100197;27;20042;-76
2023/12/22 00:50:08;;;;;;;18.95;4.53;;;;;;;6.21;100.00;100102.53;5088325;27;20092;-76
2023/12/22 00:52:37;;;;;;;22.25;4.22;;;;;;;6.06;100.00;100067.22;5102932;27;20147;-76
2023/12/22 00:55:02;;;;;;;19.83;3.53;;;;;;;5.97;100.00;100097.72;5100752;27;20056;-75
2023/12/22 00:57:33;;;;;;;14.50;2.78;;;;;;;5.87;100.00;100112.38;5104572;27;20024;-76
2023/12/22 00:59:58;;;;;;;11.57;2.65;;;;;;;5.84;100.00;100109.88;5103478;27;20027;-76
2023/12/22 01:02:24;;;;;;;10.95;2.53;;;;;;;5.90;100.00;100098.97;5107817;27;21099;-77
2023/12/22 01:04:49;;;;;;;13.07;2.28;;;;;;;5.96;100.00;100111.88;5102445;27;20071;-76
2023/12/22 01:07:15;;;;;;;16.98;3.00;;;;;;;5.92;100.00;100115.66;5088671;27;20059;-77
2023/12/22 01:09:42;;;;;;;9.75;2.25;;;;;;;5.88;100.00;100122.00;5111576;27;20035;-76
2023/12/22 01:12:09;;;;;;;12.48;2.53;;;;;;;5.88;100.00;100122.00;5111101;27;20036;-77
2023/12/22 01:14:38;;;;;;;23.25;2.92;;;;;;;5.81;100.00;100117.13;5093966;27;20040;-77
2023/12/22 01:17:07;;;;;;;9.02;2.42;;;;;;;5.83;100.00;100110.84;5085639;27;20031;-77
2023/12/22 01:19:32;;;;;;;11.40;2.15;;;;;;;5.82;100.00;100116.19;5099765;27;20038;-77
2023/12/22 01:21:59;;;;;;;10.70;2.20;;;;;;;5.77;100.00;100112.94;5085291;27;20516;-76
2023/12/22 01:24:24;;;;;;;12.13;2.45;;;;;;;5.78;100.00;100110.22;5102704;27;20070;-77
2023/12/22 01:26:50;;;;;;;13.57;2.70;;;;;;;5.70;100.00;100110.63;5109392;27;20576;-78
2023/12/22 01:29:15;;;;;;;13.45;3.33;;;;;;;5.65;100.00;100095.97;5102719;27;20031;-77
2023/12/22 01:31:41;;;;;;;10.48;2.10;;;;;;;5.63;100.00;100114.56;5102536;27;20856;-77
2023/12/22 01:34:06;;;;;;;11.35;2.67;;;;;;;5.65;100.00;100123.28;5108365;27;20070;-76
2023/12/22 01:36:35;;;;;;;15.10;3.15;;;;;;;5.65;100.00;100117.97;5086474;27;20552;-77
2023/12/22 01:39:04;;;;;;;17.45;2.55;;;;;;;5.69;100.00;100131.91;5102895;27;20124;-77
2023/12/22 01:41:33;;;;;;;16.15;3.05;;;;;;;5.77;100.00;100134.09;5090736;27;20960;-77
2023/12/22 01:43:59;;;;;;;11.68;2.42;;;;;;;5.78;100.00;100138.47;5089409;27;20146;-76
2023/12/22 01:46:25;;;;;;;10.30;2.25;;;;;;;5.84;100.00;100136.34;5103530;27;20035;-75
2023/12/22 01:48:51;;;;;;;15.02;3.33;;;;;;;5.90;100.00;100153.66;5090000;27;20291;-75
2023/12/22 01:51:17;;;;;;;13.95;2.88;;;;;;;5.92;100.00;100155.34;5108070;27;20605;-75
2023/12/22 01:53:44;;;;;;;12.45;2.38;;;;;;;5.96;100.00;100148.06;5107128;27;20493;-75
2023/12/22 01:56:10;;;;;;;17.50;3.03;;;;;;;5.96;100.00;100130.38;5098123;27;20048;-75
2023/12/22 01:58:37;;;;;;;15.50;2.40;;;;;;;5.90;100.00;100143.09;5096958;27;20137;-74
2023/12/22 02:01:13;;;;;;;21.83;4.25;;;;;;;5.86;100.00;100141.53;5089220;27;20043;-75
2023/12/22 02:03:39;;;;;;;13.85;1.95;;;;;;;5.81;100.00;100127.72;5109199;27;20031;-75
2023/12/22 02:06:05;;;;;;;11.05;2.30;;;;;;;5.79;100.00;100142.81;5091803;27;20146;-75
2023/12/22 02:08:33;;;;;;;14.30;2.25;;;;;;;5.69;100.00;100159.19;5093018;27;20034;-74
2023/12/22 02:10:58;;;;;;;14.85;2.65;;;;;;;5.66;100.00;100153.22;5104788;27;20043;-75
2023/12/22 02:13:24;;;;;;;18.77;3.35;;;;;;;5.66;100.00;100154.06;5102161;27;20132;-77
2023/12/22 02:16:12;;;;;;;16.67;2.45;;;;;;;5.57;100.00;100156.34;5107708;27;20043;-77
2023/12/22 02:18:43;;;;;;;15.00;3.42;;;;;;;5.52;100.00;100164.53;5108062;27;20043;-75
2023/12/22 02:21:09;;;;;;;15.60;3.13;;;;;;;5.59;100.00;100157.13;5074395;27;20044;-77
2023/12/22 02:23:41;;;;;;;10.85;3.47;;;;;;;5.59;100.00;100158.00;5105379;27;20043;-77
2023/12/22 02:26:13;;;;;;;14.48;2.97;;;;;;;5.63;100.00;100170.13;5099315;27;20047;-76
2023/12/22 02:28:39;;;;;;;14.60;2.92;;;;;;;5.64;100.00;100155.09;5095462;27;20028;-76
2023/12/22 02:31:27;;;;;;;22.63;3.63;;;;;;;5.63;100.00;100156.03;5103228;27;20047;-77
2023/12/22 02:33:54;;;;;;;13.02;3.65;;;;;;;5.68;100.00;100146.06;5105500;27;20040;-76
2023/12/22 02:36:21;;;;;;;14.50;3.65;;;;;;;5.67;100.00;100158.44;5098310;27;20039;-76
2023/12/22 02:38:49;;;;;;;18.80;4.45;;;;;;;5.81;100.00;100156.81;5108770;27;20035;-76
2023/12/22 02:41:15;;;;;;;25.40;4.65;;;;;;;5.79;100.00;100146.31;5100282;27;20040;-77
2023/12/22 02:43:41;;;;;;;18.85;4.97;;;;;;;5.75;100.00;100144.78;5109930;27;20024;-76
2023/12/22 02:46:15;;;;;;;14.82;4.40;;;;;;;5.71;100.00;100141.44;5102224;27;20035;-76
2023/12/22 02:48:41;;;;;;;18.00;3.60;;;;;;;5.78;100.00;100131.41;5105869;27;20040;-77
2023/12/22 02:51:06;;;;;;;20.48;3.80;;;;;;;5.86;100.00;100141.53;5085795;27;20101;-76
2023/12/22 02:53:38;;;;;;;14.35;3.40;;;;;;;5.91;100.00;100131.56;5109751;27;20019;-76
2023/12/22 02:56:06;;;;;;;24.15;3.42;;;;;;;5.97;100.00;100128.59;5102126;27;20207;-76
2023/12/22 02:58:35;;;;;;;24.65;3.95;;;;;;;6.04;100.00;100137.91;5103968;27;20063;-77
2023/12/22 03:01:04;;;;;;;19.88;3.88;;;;;;;6.06;100.00;100116.66;5090514;27;20514;-76
2023/12/22 03:03:41;;;;;;;24.48;4.88;;;;;;;5.97;100.00;100120.66;5067220;27;20035;-76
2023/12/22 03:06:09;;;;;;;28.30;4.43;;;;;;;5.96;100.00;100116.31;5090525;27;20123;-76
2023/12/22 03:08:41;;;;;;;26.85;5.35;;;;;;;5.97;100.00;100131.25;5073619;27;20038;-77
2023/12/22 03:11:13;;;;;;;28.80;4.63;;;;;;;6.06;100.00;100141.31;5097814;27;20035;-76
2023/12/22 03:13:38;;;;;;;23.83;5.80;;;;;;;6.06;100.00;100149.25;5081505;28;20439;-77
2023/12/22 03:16:08;;;;;;;34.75;5.10;;;;;;;6.06;100.00;100157.19;5088230;27;20457;-76
2023/12/22 03:18:34;;;;;;;37.88;5.47;;;;;;;6.09;100.00;100162.34;5068132;27;20032;-77
2023/12/22 03:21:15;;;;;;;23.35;4.15;;;;;;;6.09;100.00;100178.22;5087113;27;20047;-76
2023/12/22 03:23:41;;;;;;;31.25;5.30;;;;;;;5.92;100.00;100192.38;5101292;27;20036;-76
2023/12/22 03:26:06;;;;;;;55.80;5.97;;;;;;;5.82;100.00;100211.44;5096967;27;20020;-76
2023/12/22 03:28:38;;;;;;;11.25;2.33;;;;;;;5.04;100.00;100231.38;5091113;27;20024;-75
2023/12/22 03:31:08;;;;;;;12.57;2.03;;;;;;;4.97;100.00;100237.88;5107260;27;20049;-76
2023/12/22 03:33:33;;;;;;;10.27;2.42;;;;;;;5.04;100.00;100265.72;5106763;27;20431;-75
2023/12/22 03:35:59;;;;;;;9.02;2.20;;;;;;;5.03;100.00;100279.88;5082125;27;20040;-76
2023/12/22 03:38:38;;;;;;;14.63;2.42;;;;;;;4.92;100.00;100269.84;5103717;27;20035;-76
2023/12/22 03:41:06;;;;;;;11.70;3.00;;;;;;;4.81;100.00;100262.41;5100125;27;21038;-75
2023/12/22 03:43:41;;;;;;;12.20;2.10;;;;;;;4.80;100.00;100231.66;5105436;27;20024;-76
2023/12/22 03:46:07;;;;;;;10.95;2.00;;;;;;;4.84;100.00;100212.09;5087603;27;20035;-76
2023/12/22 03:48:32;;;;;;;9.98;2.38;;;;;;;4.70;100.00;100243.59;5096237;27;20028;-76
2023/12/22 03:50:58;;;;;;;15.13;2.67;;;;;;;4.80;100.00;100249.28;5102995;27;20041;-76
2023/12/22 03:53:24;;;;;;;16.83;2.08;;;;;;;4.81;100.00;100270.34;5088134;27;20032;-76
2023/12/22 03:55:50;;;;;;;15.95;2.65;;;;;;;4.80;100.00;100279.19;5100087;27;20094;-76
2023/12/22 03:58:15;;;;;;;7.60;1.80;;;;;;;4.88;100.00;100282.34;5094031;27;20032;-75
2023/12/22 04:00:41;;;;;;;12.55;2.65;;;;;;;4.89;100.00;100277.91;5101076;27;21155;-76
2023/12/22 04:03:06;;;;;;;8.95;1.70;;;;;;;4.92;100.00;100283.06;5107876;27;20036;-76
2023/12/22 04:05:41;;;;;;;8.38;2.33;;;;;;;4.83;100.00;100273.78;5079685;27;20028;-76
2023/12/22 04:08:06;;;;;;;10.50;2.72;;;;;;;4.88;100.00;100286.78;5108436;27;20035;-76
2023/12/22 04:10:41;;;;;;;15.80;3.58;;;;;;;4.86;100.00;100280.69;5085014;27;20040;-76
2023/12/22 04:13:06;;;;;;;14.15;2.53;;;;;;;4.92;100.00;100273.34;5098795;27;20028;-75
2023/12/22 04:15:41;;;;;;;10.07;1.95;;;;;;;4.87;100.00;100251.56;5079354;28;20044;-76
2023/12/22 04:18:06;;;;;;;11.70;2.28;;;;;;;4.84;100.00;100270.22;5096364;27;20089;-75
2023/12/22 04:20:38;;;;;;;15.00;2.97;;;;;;;4.74;100.00;100258.38;5102588;27;22583;-76
2023/12/22 04:23:07;;;;;;;14.35;2.80;;;;;;;4.79;100.00;100258.16;5109630;27;20075;-76
2023/12/22 04:25:32;;;;;;;17.05;2.72;;;;;;;4.78;100.00;100252.03;5100775;27;20066;-76
2023/12/22 04:27:58;;;;;;;16.98;3.00;;;;;;;4.76;100.00;100253.88;5083213;27;20043;-76
2023/12/22 04:30:23;;;;;;;13.55;2.92;;;;;;;4.65;100.00;100250.91;5098274;27;20458;-76
2023/12/22 04:32:49;;;;;;;21.92;3.13;;;;;;;4.76;100.00;100251.22;5086841;27;20056;-76
2023/12/22 04:35:15;;;;;;;17.70;3.13;;;;;;;4.76;100.00;100240.66;5102698;27;20039;-76
2023/12/22 04:37:40;;;;;;;10.25;2.72;;;;;;;4.80;100.00;100241.38;5102374;27;20030;-76
2023/12/22 04:40:06;;;;;;;18.42;2.92;;;;;;;4.83;100.00;100234.16;5105550;27;20585;-76
2023/12/22 04:42:42;;;;;;;14.02;2.70;;;;;;;4.88;100.00;100228.66;5090223;27;20028;-76
2023/12/22 04:45:07;;;;;;;15.23;2.88;;;;;;;4.86;100.00;100228.72;5096173;27;20050;-75
2023/12/22 04:47:33;;;;;;;14.80;2.90;;;;;;;4.87;100.00;100233.09;5111463;27;20047;-76
2023/12/22 04:50:08;;;;;;;17.38;2.65;;;;;;;4.90;100.00;100218.84;5079827;27;20031;-76
2023/12/22 04:52:33;;;;;;;16.63;3.97;;;;;;;4.88;100.00;100234.78;5093110;27;20054;-76
2023/12/22 04:54:59;;;;;;;26.38;3.75;;;;;;;5.01;100.00;100228.88;5099873;28;20044;-76
2023/12/22 04:57:27;;;;;;;19.35;3.75;;;;;;;5.08;100.00;100230.31;5104785;28;20036;-76
2023/12/22 04:59:52;;;;;;;20.45;3.65;;;;;;;5.24;100.00;100240.94;5081480;28;20051;-76
2023/12/22 05:02:21;;;;;;;26.52;4.40;;;;;;;5.25;100.00;100243.50;5087160;28;20097;-76
2023/12/22 05:04:50;;;;;;;30.30;6.07;;;;;;;5.30;100.00;100235.34;5097013;28;21106;-76
2023/12/22 05:07:15;;;;;;;26.27;4.38;;;;;;;5.40;100.00;100273.59;5095278;28;20094;-76
2023/12/22 05:09:42;;;;;;;26.23;4.78;;;;;;;5.53;100.00;100264.09;5092238;28;20036;-77
2023/12/22 05:12:07;;;;;;;34.72;4.63;;;;;;;5.58;100.00;100253.28;5073265;28;20119;-77
2023/12/22 05:14:33;;;;;;;30.98;5.20;;;;;;;5.62;100.00;100255.69;5098210;28;20030;-76
2023/12/22 05:16:58;;;;;;;21.73;5.20;;;;;;;5.67;100.00;100264.25;5083767;28;20028;-76
2023/12/22 05:19:24;;;;;;;35.20;5.43;;;;;;;5.76;100.00;100251.44;5072685;28;20039;-75
2023/12/22 05:21:55;;;;;;;32.10;4.88;;;;;;;5.77;100.00;100261.09;5084188;28;20032;-77
2023/12/22 05:24:22;;;;;;;34.17;4.78;;;;;;;5.76;100.00;100264.66;5084833;28;20036;-76
2023/12/22 05:26:51;;;;;;;29.98;5.05;;;;;;;5.75;100.00;100257.69;5071860;28;20036;-77
2023/12/22 05:29:17;;;;;;;21.60;4.35;;;;;;;5.75;100.00;100266.47;5092164;28;20090;-76
2023/12/22 05:31:43;;;;;;;29.38;5.32;;;;;;;5.76;100.00;100267.31;5083574;28;20040;-76
2023/12/22 05:34:10;;;;;;;23.75;4.25;;;;;;;5.76;100.00;100268.16;5091264;28;20028;-76
2023/12/22 05:36:38;;;;;;;40.58;4.80;;;;;;;5.79;100.00;100265.38;5073593;28;20040;-76
2023/12/22 05:39:09;;;;;;;38.70;6.35;;;;;;;5.76;100.00;100254.09;5069484;28;20032;-76
2023/12/22 05:41:41;;;;;;;37.00;5.35;;;;;;;5.72;100.00;100256.91;5068339;28;20059;-75
2023/12/22 05:44:07;;;;;;;28.67;4.55;;;;;;;5.72;100.00;100250.75;5088340;28;20024;-76
2023/12/22 05:46:37;;;;;;;34.85;5.15;;;;;;;5.76;100.00;100247.00;5085175;28;20071;-77
2023/12/22 05:49:06;;;;;;;41.10;7.40;;;;;;;5.76;100.00;100247.00;5087051;27;20044;-76
2023/12/22 05:51:39;;;;;;;30.63;5.25;;;;;;;5.72;100.00;100248.97;5070285;28;20043;-77
2023/12/22 05:54:08;;;;;;;25.20;5.05;;;;;;;5.77;100.00;100251.34;5061965;28;20736;-76
2023/12/22 05:56:34;;;;;;;38.45;6.35;;;;;;;5.87;100.00;100227.91;5066308;28;20098;-76
2023/12/22 05:59:09;;;;;;;32.88;5.95;;;;;;;5.81;100.00;100212.38;5065364;28;20043;-76
2023/12/22 06:01:37;;;;;;;25.77;5.13;;;;;;;5.87;100.00;100228.78;5082171;28;20113;-76
2023/12/22 06:04:06;;;;;;;37.00;4.95;;;;;;;5.90;100.00;100233.91;5084724;28;20090;-76
2023/12/22 06:06:34;;;;;;;27.08;4.55;;;;;;;5.90;100.00;100236.53;5088662;28;20132;-77
2023/12/22 06:09:06;;;;;;;41.90;6.03;;;;;;;5.90;100.00;100235.69;5066728;28;20059;-77
2023/12/22 06:11:34;;;;;;;31.58;5.38;;;;;;;5.90;100.00;100231.25;5089247;28;20035;-77
2023/12/22 06:14:03;;;;;;;36.63;6.82;;;;;;;5.95;100.00;100231.88;5083013;28;20087;-77
2023/12/22 06:16:29;;;;;;;44.95;6.10;;;;;;;5.96;100.00;100236.25;5070988;28;20074;-77
2023/12/22 06:18:55;;;;;;;31.50;6.18;;;;;;;5.95;100.00;100228.38;5088385;28;20203;-77
2023/12/22 06:21:20;;;;;;;34.25;6.68;;;;;;;5.92;100.00;100234.72;5077181;28;20036;-77
2023/12/22 06:23:49;;;;;;;24.83;5.43;;;;;;;5.84;100.00;100223.66;5067103;28;20029;-77
2023/12/22 06:26:14;;;;;;;36.10;5.57;;;;;;;5.89;100.00;100226.91;5084858;28;20043;-77
2023/12/22 06:28:40;;;;;;;31.63;5.18;;;;;;;5.87;100.00;100236.72;5064544;28;20142;-77
2023/12/22 06:31:19;;;;;;;37.28;5.68;;;;;;;5.86;100.00;100228.84;5082056;28;21174;-77
2023/12/22 06:33:49;;;;;;;37.30;5.95;;;;;;;5.82;100.00;100198.19;5079761;28;20042;-77
2023/12/22 06:36:23;;;;;;;44.15;6.35;;;;;;;5.86;100.00;100210.31;5080285;28;20903;-78
2023/12/22 06:38:50;;;;;;;30.13;5.70;;;;;;;5.88;100.00;100222.56;5056827;28;20040;-78
2023/12/22 06:41:23;;;;;;;35.63;5.65;;;;;;;5.88;100.00;100221.69;5058232;28;20033;-77
2023/12/22 06:43:52;;;;;;;31.05;4.82;;;;;;;5.95;100.00;100225.75;5089346;28;20032;-78
2023/12/22 06:46:19;;;;;;;25.13;5.28;;;;;;;6.02;100.00;100219.16;5091304;28;20043;-78
2023/12/22 06:48:45;;;;;;;26.08;5.95;;;;;;;6.01;100.00;100206.88;5068484;28;20035;-77
2023/12/22 06:51:40;;;;;;;30.95;5.38;;;;;;;6.08;100.00;100202.97;5089030;28;20036;-78
2023/12/22 06:54:08;;;;;;;30.25;4.22;;;;;;;6.15;100.00;100185.81;5062250;28;20060;-78
2023/12/22 06:56:36;;;;;;;41.17;5.38;;;;;;;6.23;100.00;100188.03;5086161;27;20288;-78
2023/12/22 06:59:11;;;;;;;37.88;5.85;;;;;;;6.25;100.00;100185.28;5086977;27;20040;-78
2023/12/22 07:01:37;;;;;;;25.83;4.65;;;;;;;6.27;100.00;100181.59;5082963;27;20067;-77
2023/12/22 07:04:06;;;;;;;33.63;5.88;;;;;;;6.40;100.00;100190.56;5091036;27;20035;-77
2023/12/22 07:06:38;;;;;;;37.25;5.03;;;;;;;6.47;100.00;100193.72;5110877;27;20100;-78
2023/12/22 07:09:19;;;;;;;29.63;5.47;;;;;;;6.62;100.00;100184.03;5106871;27;20112;-77
2023/12/22 07:11:50;;;;;;;37.40;5.70;;;;;;;6.73;100.00;100187.81;5107441;27;20043;-78
2023/12/22 07:14:15;;;;;;;29.38;4.80;;;;;;;6.80;100.00;100179.50;5105078;27;20085;-78
2023/12/22 07:16:42;;;;;;;24.33;5.15;;;;;;;6.83;100.00;100185.47;5092370;27;20051;-78
2023/12/22 07:19:08;;;;;;;32.90;4.85;;;;;;;6.89;100.00;100182.47;5091271;27;20032;-78
2023/12/22 07:21:33;;;;;;;38.03;5.50;;;;;;;6.82;100.00;100174.94;5101344;27;20043;-78
2023/12/22 07:24:04;;;;;;;30.33;5.32;;;;;;;6.88;100.00;100187.84;5087780;28;20040;-77
2023/12/22 07:26:32;;;;;;;43.55;5.93;;;;;;;6.93;100.00;100201.69;5092877;27;20104;-77
2023/12/22 07:28:58;;;;;;;28.08;5.22;;;;;;;6.96;100.00;100190.91;5104697;27;20058;-77
2023/12/22 07:31:30;;;;;;;24.63;5.05;;;;;;;6.98;100.00;100197.81;5084995;27;20093;-78
2023/12/22 07:33:56;;;;;;;33.58;6.15;;;;;;;7.02;100.00;100198.47;5085918;27;20168;-77
2023/12/22 07:36:21;;;;;;;32.35;5.95;;;;;;;7.04;100.00;100198.41;5088276;27;20044;-77
2023/12/22 07:38:48;;;;;;;23.10;5.13;;;;;;;7.08;100.00;100199.91;5111062;27;20032;-78
2023/12/22 07:41:14;;;;;;;31.73;5.53;;;;;;;7.07;100.00;100198.22;5075208;27;20139;-77
2023/12/22 07:43:41;;;;;;;28.27;5.65;;;;;;;7.14;100.00;100194.25;5085012;28;20050;-78
2023/12/22 07:46:09;;;;;;;28.63;5.35;;;;;;;7.19;100.00;100185.09;5103662;27;20031;-78
2023/12/22 07:48:35;;;;;;;39.00;6.70;;;;;;;7.27;100.00;100181.97;5109808;27;20028;-78
2023/12/22 07:51:11;;;;;;;27.27;5.80;;;;;;;7.32;100.00;100192.28;5109725;27;20031;-78
2023/12/22 07:53:36;;;;;;;31.63;6.57;;;;;;;7.35;100.00;100192.97;5092604;27;20032;-78
2023/12/22 07:56:06;;;;;;;28.65;7.10;;;;;;;7.43;100.00;100187.19;5097868;27;20058;-77
2023/12/22 07:58:39;;;;;;;35.63;6.55;;;;;;;7.49;100.00;100184.19;5097934;27;20058;-78
2023/12/22 08:01:07;;;;;;;37.20;7.10;;;;;;;7.50;100.00;100194.69;5097176;27;21137;-77
2023/12/22 08:03:33;;;;;;;36.78;6.35;;;;;;;7.53;100.00;100191.84;5090192;27;20032;-78
2023/12/22 08:05:59;;;;;;;39.03;7.20;;;;;;;7.58;100.00;100186.28;5081691;27;20028;-77
2023/12/22 08:08:24;;;;;;;47.28;7.45;;;;;;;7.52;100.00;100189.28;5102420;27;20035;-78
2023/12/22 08:10:50;;;;;;;41.60;7.00;;;;;;;7.51;100.00;100190.22;5100036;27;20036;-78
2023/12/22 08:13:17;;;;;;;49.80;7.82;;;;;;;7.56;100.00;100193.47;5097196;27;20048;-78
2023/12/22 08:15:49;;;;;;;44.85;7.88;;;;;;;7.60;100.00;100192.31;5092475;27;20074;-78
2023/12/22 08:18:15;;;;;;;48.15;8.13;;;;;;;7.67;100.00;100192.78;5086780;27;20039;-78
2023/12/22 08:20:40;;;;;;;39.30;7.05;;;;;;;7.62;100.00;100187.75;5105676;27;20065;-78
2023/12/22 08:23:06;;;;;;;44.25;8.43;;;;;;;7.64;100.00;100199.16;5088211;27;20038;-77
2023/12/22 08:25:38;;;;;;;46.08;7.85;;;;;;;7.63;100.00;100207.19;5107826;27;20280;-78
2023/12/22 08:28:07;;;;;;;45.95;8.82;;;;;;;7.60;100.00;100215.34;5072089;28;20147;-78
2023/12/22 08:30:33;;;;;;;48.75;8.48;;;;;;;7.62;100.00;100197.53;5113051;27;20043;-78
2023/12/22 08:32:59;;;;;;;56.33;10.25;;;;;;;7.57;100.00;100186.34;5108542;27;20036;-77
2023/12/22 08:35:24;;;;;;;37.70;6.85;;;;;;;7.38;100.00;100192.78;5099877;27;20413;-77
2023/12/22 08:37:50;;;;;;;35.55;6.85;;;;;;;7.33;100.00;100204.59;5111025;27;20061;-78
2023/12/22 08:40:15;;;;;;;31.75;6.10;;;;;;;7.26;100.00;100207.63;5087261;27;20035;-77
2023/12/22 08:42:41;;;;;;;24.48;5.18;;;;;;;7.17;100.00;100202.88;5108120;27;20930;-77
2023/12/22 08:45:07;;;;;;;30.15;6.03;;;;;;;7.13;100.00;100203.13;5092036;27;20475;-77
2023/12/22 08:47:33;;;;;;;20.83;4.57;;;;;;;7.13;100.00;100201.38;5090710;27;20542;-77
2023/12/22 08:49:59;;;;;;;28.13;5.75;;;;;;;7.14;100.00;100196.91;5114035;27;20101;-77
2023/12/22 08:52:24;;;;;;;19.13;4.88;;;;;;;7.08;100.00;100194.59;5090953;27;20115;-78
2023/12/22 08:54:54;;;;;;;20.13;4.22;;;;;;;7.14;100.00;100207.53;5097119;27;20054;-77
2023/12/22 08:57:19;;;;;;;19.20;5.10;;;;;;;7.22;100.00;100202.59;5100716;27;20924;-77
2023/12/22 08:59:46;;;;;;;33.83;5.32;;;;;;;7.23;100.00;100196.38;5104456;27;20058;-77
2023/12/22 09:02:15;;;;;;;29.08;5.00;;;;;;;7.25;100.00;100199.78;5115615;27;20028;-78
2023/12/22 09:04:41;;;;;;;35.00;4.80;;;;;;;7.35;100.00;100190.31;5108601;27;20745;-78
2023/12/22 09:07:06;;;;;;;28.25;5.18;;;;;;;7.42;100.00;100191.63;5094638;27;20959;-78
2023/12/22 09:09:32;;;;;;;32.25;6.13;;;;;;;7.42;100.00;100194.28;5102242;27;20028;-77
2023/12/22 09:11:58;;;;;;;26.45;6.82;;;;;;;7.44;100.00;100199.53;5100227;27;20028;-77
2023/12/22 09:14:24;;;;;;;29.10;6.10;;;;;;;7.49;100.00;100184.19;5076875;28;20040;-78
2023/12/22 09:16:53;;;;;;;43.38;7.53;;;;;;;7.48;100.00;100179.78;5102517;27;20355;-78
2023/12/22 09:19:19;;;;;;;34.13;6.60;;;;;;;7.56;100.00;100176.69;5110132;27;20105;-78
2023/12/22 09:21:44;;;;;;;44.03;7.40;;;;;;;7.65;100.00;100173.47;5101508;27;20109;-78
2023/12/22 09:24:12;;;;;;;40.70;6.97;;;;;;;7.68;100.00;100171.50;5114269;27;20992;-75
2023/12/22 09:26:38;;;;;;;39.88;8.13;;;;;;;7.65;100.00;100160.22;5095937;27;20036;-78
2023/12/22 09:29:06;;;;;;;28.67;6.18;;;;;;;7.69;100.00;100177.66;5108620;27;20035;-76
2023/12/22 09:31:38;;;;;;;38.50;6.30;;;;;;;7.74;100.00;100188.81;5111126;27;20038;-76
2023/12/22 09:34:04;;;;;;;38.83;5.68;;;;;;;7.75;100.00;100183.41;5093189;28;20125;-76
2023/12/22 09:36:34;;;;;;;25.02;5.00;;;;;;;7.77;100.00;100181.50;5117078;27;20043;-76
2023/12/22 09:39:06;;;;;;;34.28;4.93;;;;;;;7.79;100.00;100176.13;5106344;27;20028;-76
2023/12/22 09:41:38;;;;;;;34.65;5.20;;;;;;;7.80;100.00;100180.47;5114256;27;20214;-76
2023/12/22 09:44:07;;;;;;;24.70;4.95;;;;;;;7.86;100.00;100172.13;5112334;27;20040;-76
2023/12/22 09:46:40;;;;;;;26.45;5.00;;;;;;;7.90;100.00;100181.59;5090893;27;20036;-76
2023/12/22 09:49:07;;;;;;;31.63;5.32;;;;;;;7.96;100.00;100186.53;5075407;28;20071;-77
2023/12/22 09:51:39;;;;;;;21.95;4.82;;;;;;;7.98;100.00;100181.09;5113256;27;20038;-77
2023/12/22 09:54:09;;;;;;;29.98;4.97;;;;;;;8.08;100.00;100189.34;5091320;28;20040;-76
2023/12/22 09:56:41;;;;;;;29.83;4.65;;;;;;;8.05;100.00;100188.59;5079338;27;20044;-76
2023/12/22 09:59:14;;;;;;;25.15;4.05;;;;;;;8.05;100.00;100183.28;5074687;28;20032;-75
2023/12/22 10:01:50;;;;;;;30.75;6.75;;;;;;;8.11;100.00;100174.06;5093438;27;20048;-76
2023/12/22 10:04:16;;;;;;;27.05;6.05;;;;;;;8.05;100.00;100162.03;5093707;27;20036;-75
2023/12/22 10:06:42;;;;;;;26.10;5.15;;;;;;;8.21;100.00;100177.84;5086878;28;20064;-76
2023/12/22 10:09:08;;;;;;;24.48;5.15;;;;;;;8.17;100.00;100180.78;5092315;28;20072;-76
2023/12/22 10:11:37;;;;;;;17.63;4.07;;;;;;;8.11;100.00;100183.84;5071168;28;20043;-77
2023/12/22 10:14:07;;;;;;;11.57;3.65;;;;;;;8.14;100.00;100179.19;5072457;28;20028;-77
2023/12/22 10:16:39;;;;;;;16.90;3.22;;;;;;;8.08;100.00;100176.06;5069784;28;20040;-77
2023/12/22 10:19:09;;;;;;;10.82;2.72;;;;;;;8.05;100.00;100174.47;5084029;28;20028;-76
2023/12/22 10:21:37;;;;;;;15.15;2.75;;;;;;;8.00;100.00;100177.41;5087304;28;20078;-75
2023/12/22 10:24:07;;;;;;;8.80;2.42;;;;;;;7.95;100.00;100179.50;5058153;28;20037;-77
2023/12/22 10:26:39;;;;;;;9.07;2.60;;;;;;;7.93;100.00;100176.13;5093338;27;20143;-74
2023/12/22 10:29:08;;;;;;;10.73;2.30;;;;;;;7.87;100.00;100176.47;5093745;27;20143;-83
2023/12/22 10:31:40;;;;;;;7.75;2.50;;;;;;;7.82;100.00;100181.22;5092167;27;20029;-83
2023/12/22 10:34:06;;;;;;;10.13;3.00;;;;;;;7.80;100.00;100199.06;5051929;28;20059;-76
2023/12/22 10:36:38;;;;;;;6.57;2.47;;;;;;;7.79;100.00;100173.47;5088650;27;20040;-75
2023/12/22 10:39:12;;;;;;;13.65;1.98;;;;;;;7.84;100.00;100186.47;5065516;27;20622;-76
2023/12/22 10:41:38;;;;;;;7.20;1.98;;;;;;;7.84;100.00;100191.75;5070641;28;20682;-76
2023/12/22 10:44:08;;;;;;;9.63;2.35;;;;;;;7.93;100.00;100180.53;5077330;27;20962;-77
2023/12/22 10:46:34;;;;;;;7.93;2.40;;;;;;;8.04;100.00;100180.75;5089022;27;20582;-76
2023/12/22 10:49:06;;;;;;;14.13;2.53;;;;;;;8.05;100.00;100169.16;5099219;27;20032;-76
2023/12/22 10:51:34;;;;;;;12.98;2.47;;;;;;;8.13;100.00;100174.81;5086487;27;20152;-76
2023/12/22 10:54:09;;;;;;;6.95;2.08;;;;;;;8.12;100.00;100181.09;5071314;28;20024;-76
2023/12/22 10:56:40;;;;;;;10.63;3.15;;;;;;;8.26;100.00;100173.09;5097650;27;20314;-76
2023/12/22 10:59:09;;;;;;;12.73;3.10;;;;;;;8.26;100.00;100172.25;5102314;27;20046;-76
2023/12/22 11:01:38;;;;;;;16.75;2.97;;;;;;;8.38;100.00;100171.47;5082756;27;21592;-77
2023/12/22 11:04:13;;;;;;;12.18;3.00;;;;;;;8.46;100.00;100182.47;5101591;27;20028;-77
2023/12/22 11:06:42;;;;;;;8.18;3.10;;;;;;;8.56;100.00;100177.41;5080775;27;21266;-76
2023/12/22 11:09:09;;;;;;;14.25;3.45;;;;;;;8.69;100.00;100157.03;5083764;27;20069;-76
2023/12/22 11:11:39;;;;;;;16.05;3.85;;;;;;;8.81;100.00;100166.84;5103171;27;20039;-76
2023/12/22 11:14:07;;;;;;;22.30;9.52;;;;;;;8.93;100.00;100157.19;5083842;27;20036;-77
2023/12/22 11:16:36;;;;;;;15.93;3.70;;;;;;;9.05;100.00;100143.06;5101174;27;20163;-76
2023/12/22 11:19:08;;;;;;;10.18;3.00;;;;;;;9.03;100.00;100138.78;5066272;27;20036;-77
2023/12/22 11:21:36;;;;;;;17.35;3.75;;;;;;;8.99;100.00;100135.50;5074404;27;20032;-76